Boone Observed Data For Previous 48 Hours

Caption
Day and Hour Reservoir Elevation (behind dam)* Tailwater Elevation (below dam)* Average Hourly Discharge*
10/19/2018 2 AM EDT 1,352.83 1,263.32 3,534
10/19/2018 3 AM EDT 1,352.84 1,263.22 3,456
10/19/2018 4 AM EDT 1,352.85 1,263.24 3,454
10/19/2018 5 AM EDT 1,352.87 1,263.24 3,446
10/19/2018 6 AM EDT 1,352.87 1,263.30 3,552
10/19/2018 7 AM EDT 1,352.89 1,263.26 3,865
10/19/2018 8 AM EDT 1,352.87 1,263.01 3,626
10/19/2018 9 AM EDT 1,352.89 1,263.04 3,232
10/19/2018 10 AM EDT 1,352.92 1,263.11 3,158
10/19/2018 11 AM EDT 1,352.95 1,263.08 3,174
10/19/2018 12 PM EDT 1,352.96 1,263.35 3,317
10/19/2018 1 PM EDT 1,352.98 1,263.03 3,339
10/19/2018 2 PM EDT 1,352.99 1,262.95 3,451
10/19/2018 3 PM EDT 1,353.00 1,263.32 3,668
10/19/2018 4 PM EDT 1,353.02 1,263.26 3,344
10/19/2018 5 PM EDT 1,353.03 1,263.30 3,382
10/19/2018 6 PM EDT 1,353.05 1,263.27 3,353
10/19/2018 7 PM EDT 1,353.06 1,263.06 3,340
10/19/2018 8 PM EDT 1,353.08 1,263.16 3,309
10/19/2018 9 PM EDT 1,353.09 1,263.11 3,477
10/19/2018 10 PM EDT 1,353.12 1,263.19 3,529
10/19/2018 11 PM EDT 1,353.12 1,263.27 3,429
10/20/2018 12 AM EDT 1,353.14 1,263.30 3,401
10/20/2018 1 AM EDT 1,353.15 1,263.22 3,326
10/20/2018 2 AM EDT 1,353.17 1,263.06 3,487
10/20/2018 3 AM EDT 1,353.20 1,263.30 3,386
10/20/2018 4 AM EDT 1,353.20 1,263.28 3,347
10/20/2018 5 AM EDT 1,353.22 1,262.95 3,397
10/20/2018 6 AM EDT 1,353.25 1,263.30 3,472
10/20/2018 7 AM EDT 1,353.27 1,263.32 3,474
10/20/2018 8 AM EDT 1,353.27 1,263.19 3,687
10/20/2018 9 AM EDT 1,353.28 1,263.28 3,604
10/20/2018 10 AM EDT 1,353.31 1,263.39 3,587
10/20/2018 11 AM EDT 1,353.24 1,264.52 3,742
10/20/2018 12 PM EDT 1,353.20 1,264.67 6,762
10/20/2018 1 PM EDT 1,353.09 1,264.89 6,719
10/20/2018 2 PM EDT 1,353.02 1,264.25 6,661
10/20/2018 3 PM EDT 1,353.01 1,262.97 3,657
10/20/2018 4 PM EDT 1,353.07 1,263.07 3,336
10/20/2018 5 PM EDT 1,353.06 1,263.31 3,240
10/20/2018 6 PM EDT 1,353.10 1,263.13 3,343
10/20/2018 7 PM EDT 1,353.13 1,263.06 3,245
10/20/2018 8 PM EDT 1,353.16 1,263.28 3,555
10/20/2018 9 PM EDT 1,353.17 1,263.30 3,306
10/20/2018 10 PM EDT 1,353.19 1,263.25 3,324
10/20/2018 11 PM EDT 1,353.19 1,263.03 3,377
10/21/2018 12 AM EDT 1,353.23 1,263.02 3,240
10/21/2018 1 AM EDT 1,353.26 1,263.27 3,243
10/21/2018 2 AM EDT 1,353.29 1,263.34 3,391
10/21/2018 3 AM EDT 1,353.32 1,263.05 3,309
10/21/2018 4 AM EDT 1,353.32 1,263.06 3,381
10/21/2018 5 AM EDT 1,353.34 1,263.26 3,151
10/21/2018 6 AM EDT 1,353.35 1,263.02 3,495
10/21/2018 7 AM EDT 1,353.39 1,263.19 3,696
10/21/2018 8 AM EDT 1,353.38 1,263.08 3,396
10/21/2018 9 AM EDT 1,353.33 1,264.22 3,853
10/21/2018 10 AM EDT 1,353.26 1,264.88 6,310

Elevations are in feet above sea level. Discharges are in cubic feet per second and are reported at the end of the hour.